TAF Text Data
IDs:
Format:
Raw Decoded Include METAR

Data at: 1703 UTC 04 Aug 2021

Region: TOP
KATL 041558Z 0416/0518 10009KT P6SM SCT040
  TEMPO 0420/0424 4SM SHRA BKN035
  FM050200 08004KT P6SM SCT060
  FM051500 10006KT P6SM SCT040


KBOS 041450Z 0415/0518 11008KT P6SM BKN200
  FM042200 12009KT P6SM VCSH OVC030
  FM050000 12007KT P6SM VCSH OVC015
  FM050600 07011G20KT 3SM +SHRA BR OVC015
  FM051300 04009KT P6SM VCSH OVC008


KBWI 041500Z 0415/0518 02005KT P6SM OVC250
  FM041700 06011KT P6SM BKN250
  FM050300 VRB04KT P6SM SKC


KCLE 041500Z 0415/0518 02008KT P6SM FEW060
  FM050000 00000KT P6SM SKC


KCLT 041618Z 0416/0518 02008KT P6SM BKN025
  FM041800 04007KT P6SM SCT060
  FM050900 05004KT P6SM SCT020
  FM051400 05005KT P6SM FEW080


KCVG 041658Z 0417/0518 06012G22KT P6SM FEW050 SCT070
  FM050100 05005KT P6SM FEW060
  FM051300 14005KT P6SM FEW060


KDCA 041500Z 0415/0518 06010KT P6SM BKN250
  FM041700 06010KT P6SM SCT250
  FM050400 02005KT P6SM FEW250
  FM050600 VRB04KT P6SM SKC


KDEN 041504Z 0415/0518 04006KT P6SM BKN070 OVC100
  FM041800 02012KT P6SM SCT080 BKN140
  FM050200 06007KT P6SM SCT090 SCT140
  FM050500 21009KT P6SM FU FEW140
  FM051500 VRB05KT 6SM FU FEW140


KDFW 041501Z 0415/0518 10005KT P6SM FEW025 BKN100
  FM041800 11006KT P6SM SCT040 SCT100


KDTW 041507Z 0415/0518 VRB03KT P6SM SCT050
  FM042000 14005KT P6SM BKN060
  TEMPO 0420/0423 SHRA BKN040
  FM050200 VRB03KT P6SM SCT070
  FM051300 25006KT 6SM HZ BKN060


KEWR 041433Z 0415/0518 04006KT P6SM SCT030 OVC250
  FM041900 09009KT P6SM SCT030 OVC100
  FM042200 08008KT P6SM SCT030 OVC060
  FM050100 05006KT P6SM OVC040
  FM050700 01007KT P6SM OVC040


KFLL 041457Z 0415/0518 15009KT P6SM VCSH SCT030 SCT050 BKN150
  FM041700 15009KT P6SM SHRA VCTS SCT030CB BKN050 BKN150
  TEMPO 0417/0421 5SM TSRA BKN030CB
  FM050100 15004KT P6SM SCT025 BKN150
  FM051400 13008KT P6SM VCSH SCT025 BKN150


KIAD 041500Z 0415/0518 03005KT P6SM FEW250
  FM041600 06010KT P6SM FEW250
  FM042100 06008KT P6SM SCT060
  FM050100 08004KT P6SM FEW050
  FM050500 00000KT P6SM SKC


KIAH 041120Z 0412/0518 04006KT P6SM FEW025 BKN120
  FM041700 07007KT P6SM SCT045 SCT250
  FM050000 10008KT P6SM SCT060 SCT250
  FM050900 07004KT P6SM SCT070 SCT250


KJFK 041433Z 0415/0518 07007KT P6SM OVC250
  FM041900 09010KT P6SM SCT030 OVC100
  FM050100 05009KT P6SM VCSH OVC035
  FM050700 01009KT P6SM VCSH OVC035
  FM051200 03008KT P6SM OVC040


KLAS 041446Z 0415/0518 VRB05KT P6SM SKC
  FM041700 07006KT P6SM FEW120
  FM050400 21008KT P6SM SKC
  FM051700 20006KT P6SM FEW140


KLAX 041507Z 0415/0518 VRB03KT P6SM SKC
  FM041700 24006KT P6SM SKC
  FM042000 26015KT P6SM SKC
  FM050100 26010KT P6SM SKC
  FM050400 26005KT P6SM SKC
  FM050700 VRB03KT P6SM SKC
  FM051700 26006KT P6SM SKC


KLGA 041433Z 0415/0518 06008KT P6SM SCT030 OVC250
  FM042100 06010KT P6SM SCT030 OVC100
  FM050300 05008KT P6SM VCSH OVC030
  FM050700 01008KT P6SM VCSH OVC035
  FM051200 04008KT P6SM OVC040


KMCO 041558Z 0416/0518 19012KT P6SM VCSH SCT030 BKN050 BKN080
  TEMPO 0416/0418 VRB15G25KT 3SM +SHRA BKN030 OVC045
  FM041800 22013KT P6SM VCTS SCT035CB BKN080 BKN250
  TEMPO 0418/0421 3SM TSRA BKN025CB OVC050
  FM042200 22009KT P6SM VCSH SCT045 BKN120 BKN250
  FM050300 19006KT P6SM SCT045 BKN160 BKN250
  FM051500 19011KT P6SM SCT035 SCT120 BKN250


KMDW 041504Z 0415/0518 13003KT P6SM FEW250
  FM041800 07008KT P6SM SCT060
  FM050200 20003KT P6SM FEW250
  FM051400 21007KT P6SM SCT250


KMEM 041457Z 0415/0518 01006KT P6SM SKC
  FM041600 02009KT P6SM FEW050 SCT250
  FM050100 VRB03KT P6SM SCT250
  FM051100 04005KT P6SM SKC


KMIA 041456Z 0415/0518 15007KT P6SM VCSH SCT025 SCT050 BKN150
  FM041700 15009KT P6SM SHRA VCTS SCT030CB BKN050 BKN150
  TEMPO 0417/0421 5SM TSRA BKN030CB
  FM050100 15004KT P6SM SCT025 BKN150
  FM051400 13008KT P6SM VCSH SCT025 BKN150


KMSP 041445Z 0415/0518 22005KT P6SM FEW250
  FM041600 20010G16KT P6SM SCT250
  FM050100 19007KT P6SM SCT100 BKN200
  FM051000 18007KT P6SM -SHRA BKN080
  PROB30 0511/0515 4SM TSRA OVC050CB
  FM051500 18008KT P6SM -SHRA OVC040


KORD 041504Z 0415/0518 VRB03KT P6SM FEW250
  FM041800 08008KT P6SM SCT060
  FM050200 VRB03KT P6SM FEW250
  FM051400 21007KT P6SM SCT250


KPDX 041445Z 0415/0512 33005KT P6SM BKN009
  FM041600 33005KT P6SM BKN012
  FM041800 33007KT P6SM SKC
  FM051100 31004KT P6SM SCT012


KPHL 041445Z 0415/0518 04005KT P6SM OVC200
  FM041700 08009KT P6SM OVC080
  FM050200 05006KT P6SM SCT150
  FM051200 35005KT P6SM BKN250


KPHX 041447Z 0415/0518 10007KT P6SM SKC
  FM042100 28007KT P6SM FEW120
  FM050600 VRB05KT P6SM SKC
  FM051000 11005KT P6SM FEW250


KPIT 041448Z 0415/0518 VRB03KT P6SM SCT080
  FM041900 05003KT P6SM BKN070
  FM050900 09003KT 1SM BR SCT100


KSAN 041439Z 0415/0518 VRB04KT P6SM OVC007
  FM041630 VRB05KT P6SM FEW009
  FM041800 29011KT P6SM SKC
  FM050200 29006KT P6SM FEW007
  FM050600 VRB03KT P6SM OVC007
  FM051600 VRB04KT P6SM FEW007


KSEA 041508Z 0415/0518 30003KT P6SM SCT250
  FM042000 31007KT P6SM FEW250
  FM050000 35008KT P6SM FEW250
  FM050500 35005KT P6SM SKC


KSFO 041501Z 0415/0518 30007KT P6SM BKN011
  FM041800 27009KT P6SM FEW011
  TEMPO 0418/0419 BKN011
  FM042000 29018G24KT P6SM FEW009 FEW200
  FM050300 29016KT P6SM SCT007 BKN011
  FM050900 30012KT 6SM -DZ OVC009
  FM051600 27013KT P6SM OVC012


KSLC 041453Z 0415/0518 16006KT P6SM FEW200
  FM041800 31007KT P6SM SKC
  FM050300 15007KT P6SM SKC


KSTL 041459Z 0415/0518 06005KT P6SM SCT050
  FM050000 10005KT P6SM FEW250


KTPA 041501Z 0415/0518 22011KT P6SM VCTS FEW020 BKN035CB BKN120
  FM041900 23009KT 6SM SHRA VCTS SCT020CB BKN080
  FM050000 20007KT P6SM VCSH SCT030 BKN100
  FM051200 19007KT P6SM VCTS SCT025CB BKN050